Terminal Aerodrome Forecast
Issued by NWS Jackson, KY

Home | Current Version | Previous Version | Text Only | Print | Product List | Glossary On
Versions: 1 2 3 4 5 6 7 8 9 10 11 12
000
FTUS43 KJKL 011739
TAFJKL
TAF
KJKL 011739Z 0118/0218 22006KT P6SM -RA OVC015
     FM020600 30007KT 6SM -RA OVC009
     FM020900 32003KT 6SM -RASN OVC015
     FM021300 32003KT P6SM BKN015=

USA.gov is the U.S. government's official web portal to all federal, state and local government web resources and services.